createdAt,value
2023-03-30T00:00:18.783Z,98.46
2023-03-30T00:01:18.509Z,98.83
2023-03-30T00:02:18.544Z,98.88
2023-03-30T00:03:18.735Z,98.52
2023-03-30T00:04:18.667Z,98.83
2023-03-30T00:05:18.810Z,99.34
2023-03-30T00:06:18.479Z,99.34
2023-03-30T00:07:18.461Z,99.44
2023-03-30T00:08:18.677Z,99.14
2023-03-30T00:09:18.446Z,99.24
2023-03-30T00:10:18.421Z,99.34
2023-03-30T00:11:18.443Z,99.44
2023-03-30T00:12:18.384Z,99.44
2023-03-30T00:13:18.423Z,99.24
2023-03-30T00:14:18.422Z,99.04
2023-03-30T00:15:18.373Z,99.24
2023-03-30T00:16:18.446Z,99.39
2023-03-30T00:17:18.337Z,99.55
2023-03-30T00:18:18.327Z,99.55
2023-03-30T00:19:18.320Z,99.86
2023-03-30T00:20:18.493Z,99.99
2023-03-30T00:21:18.613Z,99.55
2023-03-30T00:22:18.305Z,99.96
2023-03-30T00:23:18.305Z,99.86
2023-03-30T00:24:18.252Z,99.99
2023-03-30T00:25:18.259Z,99.86
2023-03-30T00:26:18.285Z,99.96
2023-03-30T00:27:18.223Z,99.99
2023-03-30T00:28:18.207Z,99.99
2023-03-30T00:29:18.220Z,99.86
2023-03-30T00:30:18.235Z,99.86
2023-03-30T00:31:18.203Z,99.99
2023-03-30T00:32:18.183Z,99.99
2023-03-30T00:33:18.156Z,99.99
2023-03-30T00:34:18.162Z,99.99
2023-03-30T00:35:18.127Z,99.99
2023-03-30T00:36:18.218Z,99.99
2023-03-30T00:37:18.128Z,99.99
2023-03-30T00:38:18.093Z,99.90
2023-03-30T00:39:18.077Z,99.99
2023-03-30T00:40:18.074Z,99.99
2023-03-30T00:41:18.102Z,99.99
2023-03-30T00:42:18.122Z,99.99
2023-03-30T00:43:18.167Z,99.99
2023-03-30T00:44:18.061Z,99.99
2023-03-30T00:45:18.097Z,99.99
2023-03-30T00:46:18.075Z,99.99
2023-03-30T00:47:18.018Z,99.99
2023-03-30T00:48:18.010Z,99.99
2023-03-30T00:49:18.002Z,99.99
2023-03-30T00:50:17.979Z,99.99
2023-03-30T00:51:17.965Z,99.99
2023-03-30T00:52:17.924Z,99.99
2023-03-30T00:53:17.920Z,99.99
2023-03-30T00:54:17.905Z,99.99
2023-03-30T00:55:17.937Z,99.99
2023-03-30T00:56:19.910Z,99.99
2023-03-30T00:57:17.893Z,99.99
2023-03-30T00:58:17.859Z,99.99
2023-03-30T00:59:17.855Z,99.99
2023-03-30T01:00:17.837Z,99.99
2023-03-30T01:01:17.909Z,99.99
2023-03-30T01:02:17.918Z,99.79
2023-03-30T01:03:17.862Z,99.99
2023-03-30T01:04:17.793Z,99.99
2023-03-30T01:05:17.787Z,99.99
2023-03-30T01:06:17.982Z,99.99
2023-03-30T01:07:17.811Z,99.99
2023-03-30T01:08:17.758Z,99.99
2023-03-30T01:09:17.767Z,99.99
2023-03-30T01:10:17.728Z,99.99
2023-03-30T01:11:17.764Z,99.99
2023-03-30T01:12:17.713Z,99.99
2023-03-30T01:13:17.750Z,99.99
2023-03-30T01:14:17.682Z,99.99
2023-03-30T01:15:17.684Z,99.99
2023-03-30T01:16:17.731Z,99.99
2023-03-30T01:17:17.678Z,99.99
2023-03-30T01:18:17.669Z,99.99
2023-03-30T01:19:17.652Z,99.99
2023-03-30T01:20:17.614Z,99.99
2023-03-30T01:21:17.605Z,99.99
2023-03-30T01:22:17.610Z,99.99
2023-03-30T01:23:17.614Z,99.99
2023-03-30T01:24:17.585Z,99.99
2023-03-30T01:25:17.598Z,99.99
2023-03-30T01:26:17.556Z,99.99
2023-03-30T01:27:17.551Z,99.99
2023-03-30T01:28:17.566Z,99.99
2023-03-30T01:29:17.527Z,99.99
2023-03-30T01:30:17.515Z,99.99
2023-03-30T01:31:17.592Z,99.99
2023-03-30T01:32:17.484Z,99.99
2023-03-30T01:33:17.519Z,99.99
2023-03-30T01:34:17.468Z,99.99
2023-03-30T01:35:17.477Z,99.99
2023-03-30T01:36:17.464Z,99.99
2023-03-30T01:37:17.443Z,99.99
2023-03-30T01:38:17.440Z,99.99
2023-03-30T01:39:17.424Z,99.99
2023-03-30T01:40:17.421Z,99.99
2023-03-30T01:41:17.393Z,99.99
2023-03-30T01:42:17.386Z,99.99
2023-03-30T01:43:17.476Z,99.99
2023-03-30T01:44:17.357Z,99.99
2023-03-30T01:45:17.363Z,99.99
2023-03-30T01:46:17.396Z,99.99
2023-03-30T01:47:17.312Z,99.99
2023-03-30T01:48:17.352Z,99.99
2023-03-30T01:49:17.346Z,99.99
2023-03-30T01:50:17.306Z,99.99
2023-03-30T01:51:17.267Z,99.99
2023-03-30T01:52:17.254Z,99.99
2023-03-30T01:53:17.270Z,99.99
2023-03-30T01:54:17.258Z,99.99
2023-03-30T01:55:17.244Z,99.99
2023-03-30T01:56:17.205Z,99.99
2023-03-30T01:57:17.279Z,99.99
2023-03-30T01:58:17.182Z,99.99
2023-03-30T01:59:17.178Z,99.99
2023-03-30T02:00:17.157Z,99.99
2023-03-30T02:01:17.187Z,99.99
2023-03-30T02:02:18.366Z,99.99
2023-03-30T02:03:17.391Z,99.99
2023-03-30T02:04:17.117Z,99.99
2023-03-30T02:05:17.128Z,99.99
2023-03-30T02:06:17.099Z,99.99
2023-03-30T02:07:17.118Z,99.99
2023-03-30T02:08:17.104Z,99.99
2023-03-30T02:09:17.093Z,99.99
2023-03-30T02:10:17.092Z,99.99
2023-03-30T02:11:17.062Z,99.99
2023-03-30T02:12:17.033Z,99.99
2023-03-30T02:13:17.044Z,99.96
2023-03-30T02:14:17.034Z,99.96
2023-03-30T02:15:17.001Z,99.44
2023-03-30T02:16:17.009Z,99.34
2023-03-30T02:17:16.973Z,99.04
2023-03-30T02:18:16.961Z,99.55
2023-03-30T02:19:17.028Z,99.34
2023-03-30T02:20:16.935Z,99.24
2023-03-30T02:21:16.940Z,98.52
2023-03-30T02:22:16.912Z,98.52
2023-03-30T02:23:16.923Z,98.93
2023-03-30T02:24:16.890Z,98.52
2023-03-30T02:25:16.905Z,98.27
2023-03-30T02:26:16.881Z,98.32
2023-03-30T02:27:16.862Z,97.96
2023-03-30T02:28:16.860Z,97.55
2023-03-30T02:29:16.843Z,98.06
2023-03-30T02:30:16.841Z,97.96
2023-03-30T02:31:16.926Z,97.55
2023-03-30T02:32:16.797Z,97.34
2023-03-30T02:33:16.785Z,97.75
2023-03-30T02:34:16.779Z,97.03
2023-03-30T02:35:16.765Z,96.31
2023-03-30T02:36:16.779Z,96.52
2023-03-30T02:37:16.789Z,96.62
2023-03-30T02:38:16.751Z,96.21
2023-03-30T02:39:16.745Z,96.11
2023-03-30T02:40:16.709Z,96.37
2023-03-30T02:41:16.699Z,95.96
2023-03-30T02:42:16.742Z,95.55
2023-03-30T02:43:16.723Z,95.96
2023-03-30T02:44:16.665Z,96.06
2023-03-30T02:45:16.673Z,95.45
2023-03-30T02:46:16.691Z,94.93
2023-03-30T02:47:16.629Z,94.58
2023-03-30T02:48:16.653Z,94.73
2023-03-30T02:49:16.690Z,94.68
2023-03-30T02:50:16.595Z,94.99
2023-03-30T02:51:16.617Z,94.58
2023-03-30T02:52:16.584Z,94.21
2023-03-30T02:53:16.616Z,94.27
2023-03-30T02:54:16.552Z,94.78
2023-03-30T02:55:16.566Z,94.58
2023-03-30T02:56:16.535Z,94.17
2023-03-30T02:57:16.586Z,93.96
2023-03-30T02:58:16.508Z,93.55
2023-03-30T02:59:16.598Z,93.76
2023-03-30T03:00:16.516Z,93.55
2023-03-30T03:01:24.241Z,93.24
2023-03-30T03:02:16.584Z,92.93
2023-03-30T03:03:16.530Z,93.04
2023-03-30T03:04:24.212Z,92.83
2023-03-30T03:05:24.096Z,92.63
2023-03-30T03:06:16.463Z,92.73
2023-03-30T03:07:25.481Z,93.04
2023-03-30T03:08:16.456Z,91.91
2023-03-30T03:09:16.421Z,92.07
2023-03-30T03:10:16.422Z,91.97
2023-03-30T03:11:16.416Z,92.17
2023-03-30T03:12:16.449Z,91.76
2023-03-30T03:13:16.407Z,91.25
2023-03-30T03:14:16.337Z,91.14
2023-03-30T03:15:16.328Z,91.35
2023-03-30T03:16:16.328Z,91.14
2023-03-30T03:17:16.322Z,90.98
2023-03-30T03:18:16.351Z,91.19
2023-03-30T03:19:16.311Z,91.14
2023-03-30T03:20:16.277Z,91.60
2023-03-30T03:21:16.253Z,90.83
2023-03-30T03:22:16.248Z,91.19
2023-03-30T03:23:16.254Z,91.08
2023-03-30T03:24:16.254Z,90.94
2023-03-30T03:25:16.224Z,90.98
2023-03-30T03:26:16.225Z,91.19
2023-03-30T03:27:16.186Z,90.57
2023-03-30T03:28:16.212Z,90.53
2023-03-30T03:29:16.163Z,90.67
2023-03-30T03:30:16.174Z,90.73
2023-03-30T03:31:16.190Z,90.67
2023-03-30T03:32:16.137Z,90.78
2023-03-30T03:33:16.127Z,90.88
2023-03-30T03:34:16.125Z,90.73
2023-03-30T03:35:16.098Z,90.83
2023-03-30T03:36:16.164Z,91.14
2023-03-30T03:37:16.063Z,90.16
2023-03-30T03:38:16.062Z,90.22
2023-03-30T03:39:16.112Z,90.42
2023-03-30T03:40:16.036Z,90.22
2023-03-30T03:41:16.079Z,90.42
2023-03-30T03:42:16.028Z,90.42
2023-03-30T03:43:18.808Z,90.36
2023-03-30T03:44:16.051Z,90.53
2023-03-30T03:45:15.995Z,90.53
2023-03-30T03:46:16.026Z,90.63
2023-03-30T03:47:16.728Z,89.91
2023-03-30T03:48:15.999Z,89.60
2023-03-30T03:49:15.944Z,89.50
2023-03-30T03:50:15.925Z,88.78
2023-03-30T03:51:15.916Z,89.29
2023-03-30T03:52:15.935Z,89.29
2023-03-30T03:53:15.890Z,89.40
2023-03-30T03:54:15.915Z,89.40
2023-03-30T03:55:15.869Z,89.46
2023-03-30T03:56:15.881Z,89.56
2023-03-30T03:57:15.919Z,89.50
2023-03-30T03:58:15.828Z,88.78
2023-03-30T03:59:15.832Z,89.60
2023-03-30T04:00:16.007Z,89.50
2023-03-30T04:01:15.901Z,89.50
2023-03-30T04:02:15.846Z,89.40
2023-03-30T04:03:15.853Z,89.40
2023-03-30T04:04:15.808Z,89.50
2023-03-30T04:05:15.750Z,89.40
2023-03-30T04:06:15.800Z,89.29
2023-03-30T04:07:15.734Z,89.60
2023-03-30T04:08:15.720Z,89.19
2023-03-30T04:09:15.715Z,89.19
2023-03-30T04:10:15.694Z,88.89
2023-03-30T04:11:15.708Z,89.25
2023-03-30T04:12:15.727Z,89.25
2023-03-30T04:13:15.681Z,89.25
2023-03-30T04:14:15.684Z,88.74
2023-03-30T04:15:15.668Z,88.12
2023-03-30T04:16:15.676Z,88.33
2023-03-30T04:17:15.626Z,88.33
2023-03-30T04:18:15.784Z,88.53
2023-03-30T04:19:15.785Z,88.23
2023-03-30T04:20:15.617Z,88.43
2023-03-30T04:21:15.584Z,88.02
2023-03-30T04:22:15.566Z,88.02
2023-03-30T04:23:15.601Z,87.92
2023-03-30T04:24:15.568Z,88.02
2023-03-30T04:25:15.544Z,87.92
2023-03-30T04:26:15.540Z,87.92
2023-03-30T04:27:15.509Z,87.46
2023-03-30T04:28:15.522Z,87.61
2023-03-30T04:29:15.510Z,87.77
2023-03-30T04:30:15.491Z,87.77
2023-03-30T04:31:15.538Z,87.46
2023-03-30T04:32:15.461Z,87.46
2023-03-30T04:33:15.474Z,87.37
2023-03-30T04:34:15.436Z,87.77
2023-03-30T04:35:15.420Z,87.46
2023-03-30T04:36:15.505Z,87.46
2023-03-30T04:37:15.397Z,87.57
2023-03-30T04:38:15.384Z,87.37
2023-03-30T04:39:15.396Z,87.67
2023-03-30T04:40:15.386Z,87.77
2023-03-30T04:41:15.352Z,87.88
2023-03-30T04:42:15.358Z,88.18
2023-03-30T04:43:15.323Z,88.39
2023-03-30T04:44:15.328Z,88.43
2023-03-30T04:45:15.346Z,88.08
2023-03-30T04:46:22.986Z,87.88
2023-03-30T04:47:15.295Z,88.18
2023-03-30T04:48:15.283Z,88.18
2023-03-30T04:49:15.263Z,88.12
2023-03-30T04:50:15.267Z,88.18
2023-03-30T04:51:15.240Z,88.08
2023-03-30T04:52:15.279Z,87.88
2023-03-30T04:53:15.243Z,88.29
2023-03-30T04:54:15.213Z,88.02
2023-03-30T04:55:15.220Z,87.77
2023-03-30T04:56:15.218Z,88.08
2023-03-30T04:57:15.194Z,88.08
2023-03-30T04:58:15.165Z,87.88
2023-03-30T04:59:15.149Z,88.39
2023-03-30T05:00:15.148Z,88.39
2023-03-30T05:01:15.228Z,87.77
2023-03-30T05:02:15.181Z,88.23
2023-03-30T05:03:15.191Z,88.39
2023-03-30T05:04:15.118Z,88.49
2023-03-30T05:05:15.106Z,88.08
2023-03-30T05:06:15.108Z,88.49
2023-03-30T05:07:15.057Z,88.49
2023-03-30T05:08:15.048Z,88.39
2023-03-30T05:09:15.036Z,88.29
2023-03-30T05:10:15.056Z,88.29
2023-03-30T05:11:15.021Z,88.49
2023-03-30T05:12:15.006Z,88.39
2023-03-30T05:13:14.990Z,88.29
2023-03-30T05:14:14.988Z,88.39
2023-03-30T05:15:14.974Z,88.29
2023-03-30T05:16:15.006Z,88.29
2023-03-30T05:17:15.194Z,88.70
2023-03-30T05:18:14.986Z,88.29
2023-03-30T05:19:14.930Z,88.59
2023-03-30T05:20:15.982Z,89.62
2023-03-30T05:21:14.924Z,89.31
2023-03-30T05:22:14.895Z,88.49
2023-03-30T05:23:14.901Z,88.59
2023-03-30T05:24:14.872Z,88.08
2023-03-30T05:25:14.864Z,88.59
2023-03-30T05:26:14.877Z,88.29
2023-03-30T05:27:14.866Z,88.49
2023-03-30T05:28:14.823Z,88.70
2023-03-30T05:29:14.814Z,88.70
2023-03-30T05:30:14.810Z,88.49
2023-03-30T05:31:14.838Z,88.18
2023-03-30T05:32:14.800Z,88.35
2023-03-30T05:33:14.886Z,88.35
2023-03-30T05:34:14.760Z,88.39
2023-03-30T05:35:14.762Z,88.35
2023-03-30T05:36:14.772Z,88.35
2023-03-30T05:37:14.750Z,87.73
2023-03-30T05:38:14.726Z,88.35
2023-03-30T05:39:14.698Z,88.45
2023-03-30T05:40:14.694Z,87.84
2023-03-30T05:41:14.682Z,87.49
2023-03-30T05:42:14.715Z,87.43
2023-03-30T05:43:14.658Z,87.49
2023-03-30T05:44:14.713Z,87.28
2023-03-30T05:45:14.652Z,87.59
2023-03-30T05:46:14.659Z,87.59
2023-03-30T05:47:14.639Z,86.57
2023-03-30T05:48:14.598Z,86.15
2023-03-30T05:49:14.606Z,86.63
2023-03-30T05:50:14.620Z,86.01
2023-03-30T05:51:14.562Z,86.01
2023-03-30T05:52:14.556Z,85.80
2023-03-30T05:53:14.558Z,86.01
2023-03-30T05:54:14.541Z,85.30
2023-03-30T05:55:14.538Z,85.25
2023-03-30T05:56:14.533Z,84.88
2023-03-30T05:57:14.545Z,85.09
2023-03-30T05:58:14.542Z,84.53
2023-03-30T05:59:14.477Z,84.33
2023-03-30T06:00:14.487Z,83.92
2023-03-30T06:01:14.471Z,83.10
2023-03-30T06:02:14.461Z,82.96
2023-03-30T06:03:14.616Z,82.35
2023-03-30T06:04:14.515Z,81.84
2023-03-30T06:05:14.489Z,81.49
2023-03-30T06:06:14.397Z,82.35
2023-03-30T06:07:14.380Z,81.29
2023-03-30T06:08:14.426Z,82.21
2023-03-30T06:09:14.378Z,81.59
2023-03-30T06:10:14.398Z,81.38
2023-03-30T06:11:14.365Z,81.79
2023-03-30T06:12:14.328Z,82.10
2023-03-30T06:13:14.343Z,82.41
2023-03-30T06:14:14.656Z,83.23
2023-03-30T06:15:14.306Z,83.74
2023-03-30T06:16:14.344Z,83.95
2023-03-30T06:17:14.273Z,83.95
2023-03-30T06:18:14.312Z,84.39
2023-03-30T06:19:14.260Z,84.80
2023-03-30T06:20:14.271Z,85.01
2023-03-30T06:21:14.260Z,85.01
2023-03-30T06:22:14.209Z,85.31
2023-03-30T06:23:14.315Z,85.42
2023-03-30T06:24:14.209Z,85.01
2023-03-30T06:25:14.180Z,85.42
2023-03-30T06:26:14.169Z,85.83
2023-03-30T06:27:14.185Z,86.34
2023-03-30T06:28:14.290Z,86.96
2023-03-30T06:29:14.148Z,87.37
2023-03-30T06:30:14.126Z,87.30
2023-03-30T06:31:14.197Z,87.88
2023-03-30T06:32:14.156Z,88.23
2023-03-30T06:33:14.102Z,88.43
2023-03-30T06:34:14.098Z,89.25
2023-03-30T06:35:14.091Z,88.74
2023-03-30T06:36:14.127Z,89.97
2023-03-30T06:37:14.079Z,89.76
2023-03-30T06:38:14.035Z,89.87
2023-03-30T06:39:14.034Z,90.73
2023-03-30T06:40:14.878Z,90.69
2023-03-30T06:41:14.001Z,90.58
2023-03-30T06:42:13.990Z,91.30
2023-03-30T06:43:13.976Z,91.35
2023-03-30T06:44:13.990Z,91.75
2023-03-30T06:45:14.327Z,91.44
2023-03-30T06:46:14.022Z,92.06
2023-03-30T06:47:13.929Z,92.47
2023-03-30T06:48:13.924Z,92.57
2023-03-30T06:49:13.924Z,92.32
2023-03-30T06:50:13.892Z,93.19
2023-03-30T06:51:13.903Z,93.29
2023-03-30T06:52:13.875Z,93.80
2023-03-30T06:53:13.933Z,93.90
2023-03-30T06:54:13.848Z,93.90
2023-03-30T06:55:13.836Z,93.70
2023-03-30T06:56:13.835Z,93.49
2023-03-30T06:57:15.074Z,93.80
2023-03-30T06:58:13.832Z,94.32
2023-03-30T06:59:13.820Z,94.11
2023-03-30T07:00:13.949Z,94.32
2023-03-30T07:01:13.837Z,94.32
2023-03-30T07:02:13.765Z,93.90
2023-03-30T07:03:13.837Z,93.60
2023-03-30T07:04:13.786Z,93.80
2023-03-30T07:05:13.724Z,93.90
2023-03-30T07:06:13.719Z,93.70
2023-03-30T07:07:13.715Z,93.80
2023-03-30T07:08:13.705Z,93.29
2023-03-30T07:09:13.734Z,93.66
2023-03-30T07:10:13.666Z,93.60
2023-03-30T07:11:13.672Z,93.86
2023-03-30T07:12:13.793Z,93.76
2023-03-30T07:13:13.744Z,93.96
2023-03-30T07:14:13.650Z,93.96
2023-03-30T07:15:13.620Z,93.25
2023-03-30T07:16:13.667Z,92.59
2023-03-30T07:17:13.606Z,92.49
2023-03-30T07:18:13.750Z,92.28
2023-03-30T07:19:13.635Z,91.97
2023-03-30T07:20:13.557Z,91.83
2023-03-30T07:21:14.095Z,91.31
2023-03-30T07:22:13.566Z,91.22
2023-03-30T07:23:13.522Z,90.86
2023-03-30T07:24:13.687Z,90.27
2023-03-30T07:25:13.679Z,89.72
2023-03-30T07:26:13.491Z,90.02
2023-03-30T07:27:13.477Z,89.98
2023-03-30T07:28:13.486Z,88.24
2023-03-30T07:29:13.461Z,88.82
2023-03-30T07:30:21.376Z,87.18
2023-03-30T07:31:14.519Z,86.77
2023-03-30T07:32:13.503Z,86.63
2023-03-30T07:33:13.477Z,87.14
2023-03-30T07:34:13.425Z,86.08
2023-03-30T07:35:13.385Z,84.45
2023-03-30T07:36:13.466Z,84.75
2023-03-30T07:37:13.386Z,84.55
2023-03-30T07:38:13.373Z,84.45
2023-03-30T07:39:13.356Z,85.33
2023-03-30T07:40:13.358Z,84.51
2023-03-30T07:41:13.371Z,84.17
2023-03-30T07:42:13.351Z,83.56
2023-03-30T07:43:13.300Z,83.86
2023-03-30T07:44:13.292Z,83.51
2023-03-30T07:45:16.062Z,83.76
2023-03-30T07:46:13.322Z,82.84
2023-03-30T07:47:13.256Z,83.35
2023-03-30T07:48:13.285Z,83.80
2023-03-30T07:49:13.232Z,83.80
2023-03-30T07:50:13.245Z,83.90
2023-03-30T07:51:13.222Z,83.09
2023-03-30T07:52:13.205Z,83.59
2023-03-30T07:53:13.190Z,83.49
2023-03-30T07:54:13.180Z,83.70
2023-03-30T07:55:13.213Z,83.59
2023-03-30T07:56:13.155Z,83.70
2023-03-30T07:57:13.666Z,83.65
2023-03-30T07:58:13.222Z,83.65
2023-03-30T07:59:13.180Z,82.80
2023-03-30T08:00:13.108Z,82.70
2023-03-30T08:01:13.125Z,82.70
2023-03-30T08:02:13.116Z,82.50
2023-03-30T08:03:13.359Z,82.76
2023-03-30T08:04:13.239Z,82.46
2023-03-30T08:05:13.259Z,81.88
2023-03-30T08:06:13.096Z,82.60
2023-03-30T08:07:13.114Z,82.29
2023-03-30T08:08:13.048Z,82.15
2023-03-30T08:09:13.057Z,82.35
2023-03-30T08:10:13.042Z,83.01
2023-03-30T08:11:13.104Z,82.56
2023-03-30T08:12:13.005Z,81.85
2023-03-30T08:13:13.011Z,82.97
2023-03-30T08:14:13.234Z,83.58
2023-03-30T08:15:12.972Z,82.35
2023-03-30T08:16:13.089Z,81.85
2023-03-30T08:17:12.998Z,82.76
2023-03-30T08:18:13.199Z,82.76
2023-03-30T08:19:12.919Z,83.58
2023-03-30T08:20:12.973Z,82.73
2023-03-30T08:21:12.996Z,82.21
2023-03-30T08:22:13.021Z,81.91
2023-03-30T08:23:12.895Z,81.81
2023-03-30T08:24:12.895Z,82.07
2023-03-30T08:25:12.881Z,80.96
2023-03-30T08:26:12.975Z,80.99
2023-03-30T08:27:12.901Z,81.51
2023-03-30T08:28:12.799Z,80.79
2023-03-30T08:29:12.839Z,81.10
2023-03-30T08:30:12.787Z,81.04
2023-03-30T08:31:12.828Z,81.04
2023-03-30T08:32:12.760Z,81.34
2023-03-30T08:33:13.336Z,81.24
2023-03-30T08:34:13.619Z,81.04
2023-03-30T08:35:12.740Z,81.04
2023-03-30T08:36:12.760Z,81.34
2023-03-30T08:37:12.722Z,81.74
2023-03-30T08:38:12.698Z,81.54
2023-03-30T08:39:12.696Z,81.85
2023-03-30T08:40:12.656Z,81.58
2023-03-30T08:41:12.727Z,82.76
2023-03-30T08:42:12.704Z,82.80
2023-03-30T08:43:12.652Z,82.50
2023-03-30T08:44:12.621Z,83.11
2023-03-30T08:45:12.646Z,82.80
2023-03-30T08:46:12.679Z,82.40
2023-03-30T08:47:12.582Z,82.80
2023-03-30T08:48:12.649Z,82.90
2023-03-30T08:49:12.575Z,83.82
2023-03-30T08:50:12.546Z,83.62
2023-03-30T08:51:12.549Z,83.45
2023-03-30T08:52:12.583Z,83.76
2023-03-30T08:53:12.579Z,83.42
2023-03-30T08:54:12.503Z,83.86
2023-03-30T08:55:12.499Z,83.35
2023-03-30T08:56:12.478Z,83.45
2023-03-30T08:57:12.617Z,83.56
2023-03-30T08:58:12.507Z,83.45
2023-03-30T08:59:12.455Z,83.39
2023-03-30T09:00:12.446Z,83.15
2023-03-30T09:01:12.599Z,84.00
2023-03-30T09:02:12.515Z,84.61
2023-03-30T09:03:12.469Z,84.51
2023-03-30T09:04:12.459Z,85.27
2023-03-30T09:05:12.459Z,86.45
2023-03-30T09:06:12.367Z,86.90
2023-03-30T09:07:12.363Z,87.41
2023-03-30T09:08:12.349Z,88.37
2023-03-30T09:09:12.362Z,88.47
2023-03-30T09:10:12.333Z,88.98
2023-03-30T09:11:12.321Z,89.23
2023-03-30T09:12:12.394Z,90.25
2023-03-30T09:13:12.300Z,90.86
2023-03-30T09:14:12.303Z,92.02
2023-03-30T09:15:12.289Z,91.92
2023-03-30T09:16:12.325Z,93.05
2023-03-30T09:17:12.293Z,93.29
2023-03-30T09:18:12.299Z,93.91
2023-03-30T09:19:12.248Z,93.70
2023-03-30T09:20:12.207Z,94.11
2023-03-30T09:21:12.208Z,94.46
2023-03-30T09:22:12.338Z,94.93
2023-03-30T09:23:12.213Z,95.28
2023-03-30T09:24:12.162Z,95.84
2023-03-30T09:25:12.173Z,96.00
2023-03-30T09:26:12.164Z,96.25
2023-03-30T09:27:12.167Z,96.04
2023-03-30T09:28:12.144Z,96.45
2023-03-30T09:29:12.113Z,96.96
2023-03-30T09:30:12.128Z,97.27
2023-03-30T09:31:12.093Z,97.47
2023-03-30T09:32:12.199Z,97.27
2023-03-30T09:33:12.164Z,97.37
2023-03-30T09:34:14.050Z,97.98
2023-03-30T09:35:12.050Z,97.47
2023-03-30T09:36:12.076Z,98.03
2023-03-30T09:37:12.025Z,97.67
2023-03-30T09:38:12.025Z,98.08
2023-03-30T09:39:11.995Z,98.29
2023-03-30T09:40:12.885Z,98.13
2023-03-30T09:41:11.991Z,98.24
2023-03-30T09:42:11.956Z,98.44
2023-03-30T09:43:12.029Z,98.44
2023-03-30T09:44:11.941Z,98.95
2023-03-30T09:45:11.979Z,98.74
2023-03-30T09:46:11.945Z,98.74
2023-03-30T09:47:11.926Z,98.65
2023-03-30T09:48:11.917Z,98.44
2023-03-30T09:49:11.900Z,98.74
2023-03-30T09:50:11.891Z,99.15
2023-03-30T09:51:11.994Z,99.36
2023-03-30T09:52:11.872Z,99.10
2023-03-30T09:53:11.857Z,99.91
2023-03-30T09:54:11.831Z,99.26
2023-03-30T09:55:11.815Z,99.15
2023-03-30T09:56:11.835Z,99.41
2023-03-30T09:57:11.879Z,99.46
2023-03-30T09:58:11.815Z,99.91
2023-03-30T09:59:11.795Z,99.51
2023-03-30T10:00:11.764Z,99.91
2023-03-30T10:01:11.833Z,99.99
2023-03-30T10:02:11.791Z,99.99
2023-03-30T10:03:11.888Z,99.99
2023-03-30T10:04:11.854Z,99.71
2023-03-30T10:05:11.739Z,99.71
2023-03-30T10:06:11.703Z,99.71
2023-03-30T10:07:18.602Z,99.82
2023-03-30T10:08:12.704Z,99.99
2023-03-30T10:09:11.677Z,99.99
2023-03-30T10:10:11.643Z,99.99
2023-03-30T10:11:13.223Z,99.82
2023-03-30T10:12:11.647Z,99.82
2023-03-30T10:13:11.620Z,99.82
2023-03-30T10:14:11.613Z,99.91
2023-03-30T10:15:11.607Z,99.82
2023-03-30T10:16:11.705Z,99.91
2023-03-30T10:17:11.592Z,99.99
2023-03-30T10:18:11.657Z,99.51
2023-03-30T10:19:11.563Z,99.91
2023-03-30T10:20:14.273Z,99.30
2023-03-30T10:21:11.587Z,98.69
2023-03-30T10:22:11.583Z,98.63
2023-03-30T10:23:11.571Z,98.69
2023-03-30T10:24:11.507Z,98.69
2023-03-30T10:25:11.474Z,98.99
2023-03-30T10:26:11.488Z,98.83
2023-03-30T10:27:11.468Z,98.79
2023-03-30T10:28:11.436Z,98.90
2023-03-30T10:29:11.440Z,98.28
2023-03-30T10:30:11.431Z,98.38
2023-03-30T10:31:11.470Z,98.18
2023-03-30T10:32:11.397Z,98.38
2023-03-30T10:33:11.400Z,98.07
2023-03-30T10:34:11.380Z,97.71
2023-03-30T10:35:11.379Z,98.12
2023-03-30T10:36:11.403Z,97.97
2023-03-30T10:37:11.368Z,98.12
2023-03-30T10:38:11.345Z,98.02
2023-03-30T10:39:11.313Z,98.22
2023-03-30T10:40:11.364Z,98.33
2023-03-30T10:41:11.316Z,98.43
2023-03-30T10:42:11.295Z,98.12
2023-03-30T10:43:11.273Z,98.12
2023-03-30T10:44:11.256Z,98.33
2023-03-30T10:45:11.268Z,98.22
2023-03-30T10:46:19.264Z,98.12
2023-03-30T10:47:19.239Z,98.22
2023-03-30T10:48:11.348Z,97.61
2023-03-30T10:49:11.204Z,97.30
2023-03-30T10:50:11.229Z,97.25
2023-03-30T10:51:11.184Z,97.40
2023-03-30T10:52:11.204Z,97.25
2023-03-30T10:53:11.182Z,96.84
2023-03-30T10:54:11.215Z,96.84
2023-03-30T10:55:11.135Z,96.54
2023-03-30T10:56:11.209Z,96.80
2023-03-30T10:57:11.174Z,97.00
2023-03-30T10:58:11.140Z,96.70
2023-03-30T10:59:11.094Z,96.08
2023-03-30T11:00:11.079Z,95.88
2023-03-30T11:01:11.180Z,95.73
2023-03-30T11:02:11.083Z,96.25
2023-03-30T11:03:11.242Z,96.04
2023-03-30T11:04:22.598Z,96.14
2023-03-30T11:05:12.022Z,96.04
2023-03-30T11:06:11.616Z,95.73
2023-03-30T11:07:11.033Z,95.22
2023-03-30T11:08:11.004Z,95.43
2023-03-30T11:09:11.021Z,95.02
2023-03-30T11:10:11.002Z,95.12
2023-03-30T11:11:10.961Z,94.97
2023-03-30T11:12:10.943Z,95.43
2023-03-30T11:13:11.050Z,94.46
2023-03-30T11:14:10.921Z,94.67
2023-03-30T11:15:10.934Z,95.59
2023-03-30T11:16:11.008Z,95.44
2023-03-30T11:17:10.913Z,94.52
2023-03-30T11:18:10.992Z,94.32
2023-03-30T11:19:10.909Z,94.01
2023-03-30T11:20:10.893Z,94.21
2023-03-30T11:21:10.877Z,93.91
2023-03-30T11:22:10.861Z,94.32
2023-03-30T11:23:10.859Z,94.07
2023-03-30T11:24:10.846Z,94.27
2023-03-30T11:25:10.834Z,93.96
2023-03-30T11:26:10.887Z,94.68
2023-03-30T11:27:10.773Z,94.27
2023-03-30T11:28:10.822Z,93.96
2023-03-30T11:29:10.770Z,94.17
2023-03-30T11:30:10.824Z,93.76
2023-03-30T11:31:10.787Z,93.62
2023-03-30T11:32:10.783Z,93.71
2023-03-30T11:33:10.772Z,94.12
2023-03-30T11:34:10.722Z,93.62
2023-03-30T11:35:10.751Z,93.62
2023-03-30T11:36:10.820Z,93.26
2023-03-30T11:37:10.782Z,91.94
2023-03-30T11:38:10.727Z,91.33
2023-03-30T11:39:18.476Z,91.47
2023-03-30T11:40:11.675Z,91.53
2023-03-30T11:41:10.664Z,91.63
2023-03-30T11:42:10.670Z,91.33
2023-03-30T11:43:10.614Z,90.75
2023-03-30T11:44:10.642Z,91.02
2023-03-30T11:45:10.591Z,90.92
2023-03-30T11:46:10.950Z,90.51
2023-03-30T11:47:10.573Z,90.31
2023-03-30T11:48:12.233Z,91.02
2023-03-30T11:49:10.550Z,91.59
2023-03-30T11:50:10.533Z,91.39
2023-03-30T11:51:10.547Z,91.49
2023-03-30T11:52:10.495Z,90.67
2023-03-30T11:53:10.784Z,90.47
2023-03-30T11:54:10.490Z,89.71
2023-03-30T11:55:10.466Z,89.92
2023-03-30T11:56:10.480Z,89.30
2023-03-30T11:57:10.502Z,90.22
2023-03-30T11:58:10.455Z,88.90
2023-03-30T11:59:10.447Z,87.88
2023-03-30T12:00:10.412Z,87.98
2023-03-30T12:01:10.433Z,88.69
2023-03-30T12:02:10.445Z,88.69
2023-03-30T12:03:10.568Z,89.20
2023-03-30T12:04:10.472Z,89.30
2023-03-30T12:05:10.546Z,88.69
2023-03-30T12:06:10.366Z,88.69
2023-03-30T12:07:10.329Z,87.84
2023-03-30T12:08:10.375Z,88.65
2023-03-30T12:09:10.327Z,88.55
2023-03-30T12:10:10.326Z,88.51
2023-03-30T12:11:10.291Z,87.69
2023-03-30T12:12:10.298Z,86.98
2023-03-30T12:13:10.398Z,87.35
2023-03-30T12:14:10.263Z,86.22
2023-03-30T12:15:10.292Z,86.63
2023-03-30T12:16:10.276Z,86.88
2023-03-30T12:17:10.217Z,87.29
2023-03-30T12:18:10.250Z,86.83
2023-03-30T12:19:10.206Z,86.33
2023-03-30T12:20:10.206Z,84.90
2023-03-30T12:21:10.202Z,85.21
2023-03-30T12:22:10.173Z,85.41
2023-03-30T12:23:10.157Z,85.06
2023-03-30T12:24:10.152Z,84.35
2023-03-30T12:25:10.137Z,85.37
2023-03-30T12:26:10.134Z,85.47
2023-03-30T12:27:11.562Z,84.66
2023-03-30T12:28:10.077Z,85.68
2023-03-30T12:29:36.109Z,85.47
2023-03-30T12:30:11.061Z,85.58
2023-03-30T12:31:10.099Z,85.27
2023-03-30T12:32:10.175Z,84.97
2023-03-30T12:33:10.219Z,85.37
2023-03-30T12:34:10.034Z,85.06
2023-03-30T12:35:10.019Z,85.11
2023-03-30T12:36:10.071Z,85.58
2023-03-30T12:37:10.152Z,86.59
2023-03-30T12:38:10.071Z,86.96
2023-03-30T12:39:09.989Z,86.55
2023-03-30T12:40:09.949Z,86.55
2023-03-30T12:41:09.933Z,85.33
2023-03-30T12:42:09.961Z,85.94
2023-03-30T12:43:09.910Z,85.74
2023-03-30T12:44:09.943Z,85.53
2023-03-30T12:45:09.920Z,85.23
2023-03-30T12:46:09.955Z,85.43
2023-03-30T12:47:12.204Z,86.61
2023-03-30T12:48:09.949Z,86.61
2023-03-30T12:49:09.847Z,86.31
2023-03-30T12:50:09.855Z,84.88
2023-03-30T12:51:09.823Z,84.58
2023-03-30T12:52:09.924Z,84.72